Fredericksburg, Shannon Airport (KEZF)

NameShannon Airport
CityFredericksburg
CountryUnited States
ICAOKEZF
IATA
Altitude26 m
CoordinatesGoogle Map
Live Air TrafficLiveATC.net
METARKEZF 182355Z AUTO 19004KT 10SM -RA SCT038 SCT049 OVC110 22/22 A2991 RMK AO2 P0009 60015 T02240220 10310 20224
2019-06-18 23:55:00 Wind: South (190°) 2.06 m/s - Visibility: 16093.4 m - Weather: Light Rain - Temperature: 22 °C - Dew point: 22 °C - Humidity: 100% - Pressure: 1012.87 hPa

Sorry, no flights used the airport in this database.